createdAt,value
2022-08-25T00:02:55.450Z,5.93
2022-08-25T00:06:03.459Z,6.57
2022-08-25T00:09:15.627Z,6.10
2022-08-25T00:12:22.348Z,6.13
2022-08-25T00:15:28.763Z,6.00
2022-08-25T00:18:37.534Z,6.97
2022-08-25T00:21:43.540Z,6.67
2022-08-25T00:24:53.325Z,6.70
2022-08-25T00:27:59.384Z,6.47
2022-08-25T00:31:08.073Z,7.30
2022-08-25T00:34:16.841Z,8.30
2022-08-25T00:37:23.727Z,8.40
2022-08-25T00:40:33.443Z,8.23
2022-08-25T00:43:49.265Z,8.40
2022-08-25T00:46:57.252Z,7.07
2022-08-25T00:50:07.133Z,8.03
2022-08-25T00:53:14.938Z,6.93
2022-08-25T00:56:25.887Z,6.93
2022-08-25T00:59:32.377Z,7.17
2022-08-25T01:02:39.238Z,7.47
2022-08-25T01:05:46.929Z,6.80
2022-08-25T01:08:54.880Z,6.80
2022-08-25T01:12:04.405Z,7.03
2022-08-25T01:15:13.859Z,8.30
2022-08-25T01:18:21.019Z,8.57
2022-08-25T01:21:34.536Z,7.50
2022-08-25T01:24:44.029Z,8.33
2022-08-25T01:27:50.789Z,7.27
2022-08-25T01:30:56.882Z,6.43
2022-08-25T01:34:04.281Z,5.87
2022-08-25T01:37:15.904Z,6.17
2022-08-25T01:40:23.340Z,6.47
2022-08-25T01:43:34.757Z,6.27
2022-08-25T01:46:41.739Z,6.60
2022-08-25T01:49:47.845Z,6.13
2022-08-25T01:53:03.231Z,6.27
2022-08-25T01:56:13.125Z,6.40
2022-08-25T01:59:24.021Z,7.37
2022-08-25T02:02:31.706Z,6.77
2022-08-25T02:05:39.849Z,8.00
2022-08-25T02:08:49.268Z,6.53
2022-08-25T02:11:57.078Z,7.27
2022-08-25T02:15:03.235Z,7.07
2022-08-25T02:18:10.857Z,7.10
2022-08-25T02:21:17.092Z,7.57
2022-08-25T02:24:27.376Z,6.93
2022-08-25T02:27:33.541Z,7.03
2022-08-25T02:30:42.753Z,7.57
2022-08-25T02:33:48.983Z,7.30
2022-08-25T02:36:56.210Z,7.23
2022-08-25T02:40:07.707Z,7.10
2022-08-25T02:43:13.661Z,7.27
2022-08-25T02:46:23.019Z,6.67
2022-08-25T02:49:29.014Z,6.50
2022-08-25T02:52:35.872Z,6.37
2022-08-25T02:55:44.767Z,6.13
2022-08-25T02:58:51.618Z,7.37
2022-08-25T03:01:57.494Z,6.47
2022-08-25T03:05:04.553Z,6.93
2022-08-25T03:08:12.365Z,7.77
2022-08-25T03:11:22.471Z,7.37
2022-08-25T03:14:28.344Z,6.80
2022-08-25T03:17:36.014Z,7.20
2022-08-25T03:20:43.298Z,6.17
2022-08-25T03:23:50.045Z,6.40
2022-08-25T03:26:56.558Z,6.30
2022-08-25T03:30:03.711Z,6.27
2022-08-25T03:33:09.615Z,6.87
2022-08-25T03:36:16.774Z,6.43
2022-08-25T03:39:25.923Z,6.50
2022-08-25T03:42:35.571Z,6.73
2022-08-25T03:45:43.536Z,6.60
2022-08-25T03:48:50.435Z,7.20
2022-08-25T03:51:58.028Z,7.20
2022-08-25T03:55:07.115Z,6.80
2022-08-25T03:58:15.851Z,7.17
2022-08-25T04:01:23.132Z,6.67
2022-08-25T04:04:29.057Z,7.23
2022-08-25T04:07:35.866Z,7.57
2022-08-25T04:10:41.850Z,10.53
2022-08-25T04:13:52.121Z,6.83
2022-08-25T04:16:58.151Z,7.50
2022-08-25T04:20:06.973Z,7.60
2022-08-25T04:23:13.828Z,7.10
2022-08-25T04:26:28.322Z,9.03
2022-08-25T04:29:37.287Z,7.87
2022-08-25T04:32:44.037Z,7.20
2022-08-25T04:35:52.012Z,6.87
2022-08-25T04:38:58.951Z,7.43
2022-08-25T04:42:06.273Z,7.40
2022-08-25T04:45:15.918Z,7.20
2022-08-25T04:48:22.211Z,7.23
2022-08-25T04:51:31.539Z,7.43
2022-08-25T04:54:37.575Z,6.80
2022-08-25T04:57:44.346Z,6.80
2022-08-25T05:00:53.406Z,7.37
2022-08-25T05:04:03.239Z,7.50
2022-08-25T05:07:09.668Z,7.60
2022-08-25T05:10:17.244Z,7.70
2022-08-25T05:13:23.759Z,7.63
2022-08-25T05:16:34.441Z,7.13
2022-08-25T05:19:40.777Z,7.30
2022-08-25T05:22:49.198Z,8.65
2022-08-25T05:25:57.271Z,7.57
2022-08-25T05:29:07.918Z,8.50
2022-08-25T05:32:16.687Z,8.40
2022-08-25T05:35:24.997Z,8.37
2022-08-25T05:38:31.707Z,7.33
2022-08-25T05:41:38.591Z,8.10
2022-08-25T05:44:44.752Z,7.97
2022-08-25T05:47:54.421Z,8.02
2022-08-25T05:51:03.038Z,10.13
2022-08-25T05:54:10.009Z,12.18
2022-08-25T05:57:15.970Z,10.77
2022-08-25T06:00:23.022Z,9.23
2022-08-25T06:03:29.367Z,8.98
2022-08-25T06:06:36.565Z,7.05
2022-08-25T06:09:46.445Z,6.55
2022-08-25T06:12:53.254Z,6.63
2022-08-25T06:16:09.380Z,6.82
2022-08-25T06:19:19.153Z,6.80
2022-08-25T06:22:25.627Z,6.82
2022-08-25T06:25:34.123Z,7.07
2022-08-25T06:28:40.140Z,7.13
2022-08-25T06:31:50.178Z,7.45
2022-08-25T06:34:59.206Z,7.57
2022-08-25T06:38:06.953Z,7.50
2022-08-25T06:41:14.184Z,7.47
2022-08-25T06:44:20.876Z,7.60
2022-08-25T06:47:27.495Z,8.02
2022-08-25T06:50:37.038Z,8.10
2022-08-25T06:53:43.231Z,7.68
2022-08-25T06:56:50.047Z,7.40
2022-08-25T06:59:56.710Z,8.23
2022-08-25T07:03:07.168Z,7.85
2022-08-25T07:06:16.591Z,7.75
2022-08-25T07:09:25.288Z,8.15
2022-08-25T07:12:31.211Z,7.65
2022-08-25T07:15:41.696Z,8.20
2022-08-25T07:18:49.079Z,7.82
2022-08-25T07:21:58.635Z,8.93
2022-08-25T07:25:06.107Z,8.40
2022-08-25T07:28:12.968Z,8.70
2022-08-25T07:31:19.554Z,8.82
2022-08-25T07:34:56.611Z,10.45
2022-08-25T07:38:06.911Z,8.55
2022-08-25T07:41:17.282Z,9.32
2022-08-25T07:44:24.756Z,9.02
2022-08-25T07:47:35.155Z,8.63
2022-08-25T07:50:45.493Z,9.23
2022-08-25T07:53:55.274Z,8.57
2022-08-25T07:57:04.171Z,9.00
2022-08-25T08:00:12.189Z,8.65
2022-08-25T08:03:29.394Z,8.82
2022-08-25T08:06:45.050Z,8.93
2022-08-25T08:10:18.961Z,9.25
2022-08-25T08:13:23.847Z,8.20
2022-08-25T08:16:33.802Z,7.93
2022-08-25T08:19:44.826Z,9.23
2022-08-25T08:22:51.344Z,8.65
2022-08-25T08:26:01.172Z,8.98
2022-08-25T08:29:07.949Z,8.57
2022-08-25T08:32:18.775Z,8.98
2022-08-25T08:35:24.779Z,9.18
2022-08-25T08:38:32.350Z,9.68
2022-08-25T08:42:11.535Z,9.82
2022-08-25T08:45:40.654Z,7.97
2022-08-25T08:49:04.358Z,8.48
2022-08-25T08:52:13.358Z,8.02
2022-08-25T08:55:30.635Z,7.68
2022-08-25T08:58:45.569Z,8.43
2022-08-25T09:02:03.143Z,8.40
2022-08-25T09:05:15.151Z,9.32
2022-08-25T09:08:21.540Z,9.25
2022-08-25T09:11:40.044Z,8.55
2022-08-25T09:15:12.573Z,8.45
2022-08-25T09:18:30.613Z,10.10
2022-08-25T09:21:43.884Z,10.05
2022-08-25T09:25:00.132Z,10.15
2022-08-25T09:28:11.433Z,10.68
2022-08-25T09:31:29.587Z,10.13
2022-08-25T09:34:37.764Z,9.68
2022-08-25T09:37:44.776Z,9.15
2022-08-25T09:40:53.808Z,10.27
2022-08-25T09:44:03.233Z,11.25
2022-08-25T09:47:24.543Z,10.65
2022-08-25T09:50:36.159Z,10.98
2022-08-25T09:53:55.101Z,11.50
2022-08-25T09:57:08.557Z,11.57
2022-08-25T10:00:23.413Z,9.73
2022-08-25T10:03:36.348Z,10.30
2022-08-25T10:06:48.240Z,9.55
2022-08-25T10:09:57.845Z,9.20
2022-08-25T10:13:07.075Z,8.07
2022-08-25T10:16:27.005Z,8.68
2022-08-25T10:19:38.742Z,10.20
2022-08-25T10:22:50.297Z,9.38
2022-08-25T10:26:01.832Z,9.05
2022-08-25T10:29:27.063Z,9.10
2022-08-25T10:32:43.370Z,9.07
2022-08-25T10:36:03.088Z,8.55
2022-08-25T10:39:33.869Z,8.55
2022-08-25T10:42:48.500Z,8.88
2022-08-25T10:46:10.299Z,8.15
2022-08-25T10:49:23.094Z,8.30
2022-08-25T10:52:40.119Z,7.63
2022-08-25T10:55:56.277Z,7.65
2022-08-25T10:59:42.767Z,8.70
2022-08-25T11:03:12.044Z,7.03
2022-08-25T11:06:23.560Z,7.75
2022-08-25T11:09:40.186Z,7.75
2022-08-25T11:12:49.061Z,8.15
2022-08-25T11:16:17.183Z,8.18
2022-08-25T11:19:27.465Z,7.53
2022-08-25T11:22:40.881Z,7.45
2022-08-25T11:25:54.134Z,7.38
2022-08-25T11:29:11.360Z,7.57
2022-08-25T11:32:22.792Z,7.80
2022-08-25T11:35:33.064Z,8.13
2022-08-25T11:38:51.105Z,7.85
2022-08-25T11:42:17.771Z,6.78
2022-08-25T11:45:44.120Z,6.75
2022-08-25T11:49:04.744Z,6.43
2022-08-25T11:52:46.147Z,6.32
2022-08-25T11:55:56.227Z,5.70
2022-08-25T11:59:06.969Z,5.13
2022-08-25T12:02:34.236Z,6.88
2022-08-25T12:06:21.635Z,6.15
2022-08-25T12:09:28.621Z,5.95
2022-08-25T12:12:41.598Z,6.65
2022-08-25T12:16:03.103Z,6.13
2022-08-25T12:19:34.041Z,5.93
2022-08-25T12:23:03.071Z,6.40
2022-08-25T12:26:17.785Z,6.20
2022-08-25T12:29:33.565Z,6.25
2022-08-25T12:32:58.729Z,6.10
2022-08-25T12:36:11.126Z,4.90
2022-08-25T12:39:24.215Z,6.50
2022-08-25T12:42:38.340Z,5.95
2022-08-25T12:45:49.364Z,5.40
2022-08-25T12:49:04.151Z,6.10
2022-08-25T12:52:15.243Z,5.88
2022-08-25T12:55:25.173Z,5.40
2022-08-25T12:58:58.981Z,5.55
2022-08-25T13:02:35.307Z,6.13
2022-08-25T13:06:13.147Z,5.63
2022-08-25T13:10:01.038Z,5.53
2022-08-25T13:13:16.500Z,5.68
2022-08-25T13:16:29.669Z,5.32
2022-08-25T13:19:36.065Z,5.95
2022-08-25T13:22:48.524Z,5.50
2022-08-25T13:25:58.367Z,5.05
2022-08-25T13:29:17.967Z,5.15
2022-08-25T13:32:32.370Z,5.20
2022-08-25T13:35:41.230Z,5.60
2022-08-25T13:38:57.624Z,5.93
2022-08-25T13:42:07.474Z,5.45
2022-08-25T13:45:18.358Z,5.20
2022-08-25T13:48:36.569Z,6.00
2022-08-25T13:51:54.767Z,5.40
2022-08-25T13:55:06.143Z,5.28
2022-08-25T13:58:24.332Z,5.20
2022-08-25T14:01:48.721Z,5.30
2022-08-25T14:04:55.681Z,5.18
2022-08-25T14:08:16.117Z,6.03
2022-08-25T14:11:37.621Z,5.03
2022-08-25T14:14:46.021Z,5.95
2022-08-25T14:18:06.554Z,5.55
2022-08-25T14:21:14.727Z,5.68
2022-08-25T14:24:22.881Z,5.45
2022-08-25T14:27:38.746Z,4.93
2022-08-25T14:30:52.485Z,4.68
2022-08-25T14:34:03.062Z,5.28
2022-08-25T14:37:15.594Z,5.43
2022-08-25T14:40:23.130Z,5.50
2022-08-25T14:43:32.386Z,5.10
2022-08-25T14:46:46.217Z,4.97
2022-08-25T14:49:52.840Z,5.65
2022-08-25T14:53:00.093Z,5.28
2022-08-25T14:56:10.298Z,4.95
2022-08-25T14:59:20.145Z,5.03
2022-08-25T15:02:29.548Z,4.80
2022-08-25T15:05:37.640Z,4.50
2022-08-25T15:08:59.554Z,4.18
2022-08-25T15:12:07.191Z,4.40
2022-08-25T15:15:17.664Z,4.55
2022-08-25T15:18:26.065Z,5.10
2022-08-25T15:21:32.456Z,4.57
2022-08-25T15:24:39.294Z,4.65
2022-08-25T15:27:45.712Z,4.85
2022-08-25T15:30:55.978Z,4.65
2022-08-25T15:34:03.042Z,4.72
2022-08-25T15:37:12.104Z,5.68
2022-08-25T15:40:19.188Z,4.43
2022-08-25T15:43:26.370Z,4.82
2022-08-25T15:46:35.732Z,4.22
2022-08-25T15:49:43.377Z,4.78
2022-08-25T15:52:49.774Z,5.55
2022-08-25T15:55:57.695Z,4.80
2022-08-25T15:59:10.534Z,4.60
2022-08-25T16:02:20.186Z,4.40
2022-08-25T16:05:26.359Z,5.15
2022-08-25T16:08:34.077Z,4.45
2022-08-25T16:11:43.813Z,4.88
2022-08-25T16:14:51.156Z,4.30
2022-08-25T16:18:04.769Z,4.68
2022-08-25T16:21:13.199Z,5.57
2022-08-25T16:24:20.802Z,5.22
2022-08-25T16:27:28.035Z,4.95
2022-08-25T16:30:50.256Z,4.80
2022-08-25T16:34:03.150Z,5.28
2022-08-25T16:37:09.338Z,5.40
2022-08-25T16:40:19.151Z,4.60
2022-08-25T16:43:26.645Z,5.05
2022-08-25T16:46:34.031Z,5.10
2022-08-25T16:49:43.463Z,4.95
2022-08-25T16:53:08.071Z,5.53
2022-08-25T16:56:14.371Z,6.65
2022-08-25T16:59:21.387Z,5.07
2022-08-25T17:02:29.999Z,6.30
2022-08-25T17:05:45.734Z,5.93
2022-08-25T17:08:52.738Z,5.75
2022-08-25T17:11:59.785Z,5.72
2022-08-25T17:15:08.115Z,6.05
2022-08-25T17:18:14.922Z,5.97
2022-08-25T17:21:27.053Z,6.07
2022-08-25T17:24:33.982Z,5.88
2022-08-25T17:27:41.308Z,6.35
2022-08-25T17:30:49.659Z,5.78
2022-08-25T17:33:56.221Z,7.18
2022-08-25T17:37:07.018Z,6.90
2022-08-25T17:40:14.598Z,6.70
2022-08-25T17:43:21.378Z,6.85
2022-08-25T17:46:27.562Z,6.35
2022-08-25T17:49:34.613Z,6.50
2022-08-25T17:52:43.908Z,6.47
2022-08-25T17:55:51.452Z,6.47
2022-08-25T17:58:59.109Z,6.55
2022-08-25T18:02:06.733Z,6.93
2022-08-25T18:05:14.301Z,6.45
2022-08-25T18:08:32.085Z,6.63
2022-08-25T18:11:41.366Z,6.85
2022-08-25T18:14:49.391Z,6.80
2022-08-25T18:17:57.523Z,6.82
2022-08-25T18:21:06.887Z,6.50
2022-08-25T18:24:16.825Z,7.40
2022-08-25T18:27:23.778Z,6.75
2022-08-25T18:30:32.006Z,6.43
2022-08-25T18:33:41.838Z,5.93
2022-08-25T18:36:47.884Z,6.68
2022-08-25T18:40:13.846Z,6.50
2022-08-25T18:43:19.917Z,7.50
2022-08-25T18:46:27.448Z,7.15
2022-08-25T18:49:33.486Z,8.23
2022-08-25T18:52:40.739Z,7.20
2022-08-25T18:55:49.569Z,8.02
2022-08-25T18:58:56.482Z,7.43
2022-08-25T19:02:03.198Z,8.05
2022-08-25T19:05:10.807Z,7.60
2022-08-25T19:08:21.940Z,7.85
2022-08-25T19:11:32.115Z,7.45
2022-08-25T19:14:39.278Z,7.93
2022-08-25T19:17:46.831Z,8.30
2022-08-25T19:20:53.116Z,7.57
2022-08-25T19:23:59.875Z,9.00
2022-08-25T19:27:12.958Z,8.57
2022-08-25T19:30:22.007Z,8.05
2022-08-25T19:33:42.058Z,8.25
2022-08-25T19:36:51.620Z,7.70
2022-08-25T19:39:58.322Z,7.72
2022-08-25T19:43:10.299Z,7.43
2022-08-25T19:46:19.880Z,7.55
2022-08-25T19:49:31.441Z,8.15
2022-08-25T19:52:40.094Z,7.55
2022-08-25T19:55:50.103Z,8.57
2022-08-25T19:58:59.193Z,8.45
2022-08-25T20:02:08.233Z,8.15
2022-08-25T20:05:23.676Z,8.23
2022-08-25T20:08:31.227Z,7.68
2022-08-25T20:11:38.125Z,8.82
2022-08-25T20:14:48.808Z,8.07
2022-08-25T20:17:56.642Z,8.05
2022-08-25T20:21:03.663Z,8.23
2022-08-25T20:24:26.620Z,8.77
2022-08-25T20:27:41.195Z,8.45
2022-08-25T20:30:50.164Z,10.02
2022-08-25T20:34:02.835Z,9.85
2022-08-25T20:37:09.197Z,9.93
2022-08-25T20:40:20.788Z,8.10
2022-08-25T20:43:31.940Z,9.10
2022-08-25T20:46:41.744Z,9.27
2022-08-25T20:49:50.347Z,8.23
2022-08-25T20:52:59.372Z,7.50
2022-08-25T20:56:11.263Z,8.80
2022-08-25T20:59:18.430Z,8.27
2022-08-25T21:02:29.612Z,7.20
2022-08-25T21:05:37.109Z,7.25
2022-08-25T21:08:45.154Z,7.20
2022-08-25T21:11:55.480Z,8.23
2022-08-25T21:15:03.155Z,7.05
2022-08-25T21:18:12.693Z,7.10
2022-08-25T21:21:19.063Z,7.50
2022-08-25T21:24:26.102Z,7.00
2022-08-25T21:27:32.011Z,7.35
2022-08-25T21:30:44.788Z,7.47
2022-08-25T21:33:57.103Z,7.97
2022-08-25T21:37:04.165Z,7.22
2022-08-25T21:40:11.153Z,8.30
2022-08-25T21:43:18.716Z,8.23
2022-08-25T21:46:26.495Z,7.80
2022-08-25T21:49:37.235Z,8.93
2022-08-25T21:52:43.815Z,7.82
2022-08-25T21:55:50.641Z,9.10
2022-08-25T21:58:56.744Z,8.25
2022-08-25T22:02:07.745Z,8.50
2022-08-25T22:05:16.967Z,8.30
2022-08-25T22:08:23.956Z,8.15
2022-08-25T22:11:37.128Z,9.20
2022-08-25T22:14:43.911Z,8.73
2022-08-25T22:17:50.571Z,8.90
2022-08-25T22:21:00.762Z,9.75
2022-08-25T22:24:13.989Z,9.77
2022-08-25T22:27:23.286Z,9.50
2022-08-25T22:30:30.031Z,9.95
2022-08-25T22:33:37.532Z,9.02
2022-08-25T22:36:49.935Z,9.50
2022-08-25T22:39:57.423Z,10.07
2022-08-25T22:43:03.674Z,10.55
2022-08-25T22:46:13.559Z,8.73
2022-08-25T22:49:23.155Z,9.43
2022-08-25T22:52:33.760Z,10.07
2022-08-25T22:55:46.438Z,9.52
2022-08-25T22:58:53.333Z,10.33
2022-08-25T23:01:59.392Z,10.93
2022-08-25T23:05:07.994Z,11.07
2022-08-25T23:08:16.885Z,10.25
2022-08-25T23:11:43.675Z,10.60
2022-08-25T23:14:50.520Z,9.90
2022-08-25T23:17:57.336Z,9.82
2022-08-25T23:21:24.284Z,10.20
2022-08-25T23:24:34.643Z,10.48
2022-08-25T23:27:40.578Z,10.45
2022-08-25T23:30:47.839Z,10.30
2022-08-25T23:34:03.695Z,9.93
2022-08-25T23:37:10.884Z,9.38
2022-08-25T23:40:19.780Z,10.93
2022-08-25T23:43:27.186Z,10.57
2022-08-25T23:46:35.218Z,10.57
2022-08-25T23:49:42.326Z,10.90
2022-08-25T23:52:48.903Z,10.90
2022-08-25T23:56:00.744Z,11.30
2022-08-25T23:59:08.873Z,9.90
